DGSSS LOWL-ETSI
Flight info
| Callsign | DGSSS |
|---|---|
| Flight time | N/A |
| Altitude | 5000 |
| Route | VFR |
| Aircraft | DA42/L-SDE3FGHIRWY/LB1 |
Departure
| Time | 2026-04-24 16:24 |
|---|---|
| Airport | Linz-Hörsching Airport (LOWL) |
Arrival
| Time | N/A |
|---|---|
| Airport | Ingolstadt Manching Airport (ETSI) |
| Time | Latitude | Longitude | Altitude | Speed | Heading |
|---|---|---|---|---|---|
| 2026-04-24 16:18 | 48.23865 | 14.18816 | 967 ft | 0 kts | 87° |
| 2026-04-24 16:20 | 48.23802 | 14.18855 | 971 ft | 13 kts | 176° |
| 2026-04-24 16:20 | 48.23751 | 14.19079 | 971 ft | 21 kts | 85° |
| 2026-04-24 16:20 | 48.23757 | 14.19293 | 969 ft | 13 kts | 89° |
| 2026-04-24 16:21 | 48.23751 | 14.19598 | 964 ft | 14 kts | 149° |
| 2026-04-24 16:21 | 48.23639 | 14.19663 | 964 ft | 19 kts | 159° |
| 2026-04-24 16:21 | 48.23530 | 14.19728 | 967 ft | 12 kts | 159° |
| 2026-04-24 16:22 | 48.23508 | 14.19741 | 967 ft | 0 kts | 159° |
| 2026-04-24 16:22 | 48.23422 | 14.19790 | 966 ft | 14 kts | 168° |
| 2026-04-24 16:22 | 48.23360 | 14.19728 | 974 ft | 10 kts | 254° |
| 2026-04-24 16:23 | 48.23347 | 14.19501 | 972 ft | 44 kts | 266° |
| 2026-04-24 16:23 | 48.23326 | 14.18878 | 1061 ft | 66 kts | 267° |
| 2026-04-24 16:23 | 48.23298 | 14.18181 | 1339 ft | 66 kts | 268° |
| 2026-04-24 16:24 | 48.23238 | 14.16748 | 1872 ft | 69 kts | 273° |
| 2026-04-24 16:24 | 48.23225 | 14.15971 | 2046 ft | 84 kts | 273° |
| 2026-04-24 16:24 | 48.23222 | 14.15084 | 2331 ft | 84 kts | 272° |
| 2026-04-24 16:24 | 48.23209 | 14.14229 | 2628 ft | 82 kts | 272° |
| 2026-04-24 16:25 | 48.23200 | 14.13345 | 2859 ft | 86 kts | 272° |
| 2026-04-24 16:25 | 48.23183 | 14.12456 | 3144 ft | 84 kts | 276° |
| 2026-04-24 16:25 | 48.23391 | 14.11668 | 3395 ft | 82 kts | 302° |
| 2026-04-24 16:26 | 48.24053 | 14.10225 | 3846 ft | 87 kts | 303° |
| 2026-04-24 16:26 | 48.24406 | 14.09479 | 4099 ft | 88 kts | 303° |
| 2026-04-24 16:26 | 48.25117 | 14.07971 | 4568 ft | 90 kts | 302° |
| 2026-04-24 16:27 | 48.25475 | 14.07209 | 4847 ft | 89 kts | 303° |
| 2026-04-24 16:27 | 48.25832 | 14.06450 | 5092 ft | 89 kts | 303° |
| 2026-04-24 16:27 | 48.26214 | 14.05620 | 5166 ft | 106 kts | 303° |
| 2026-04-24 16:27 | 48.26671 | 14.04659 | 5178 ft | 119 kts | 304° |
| 2026-04-24 16:28 | 48.27155 | 14.03590 | 5174 ft | 127 kts | 302° |
| 2026-04-24 16:28 | 48.27651 | 14.02460 | 5172 ft | 132 kts | 303° |
| 2026-04-24 16:28 | 48.28656 | 14.00129 | 5180 ft | 137 kts | 298° |
| 2026-04-24 16:29 | 48.29125 | 13.98862 | 5176 ft | 140 kts | 299° |
| 2026-04-24 16:29 | 48.29623 | 13.97594 | 5177 ft | 141 kts | 301° |
| 2026-04-24 16:29 | 48.30660 | 13.95097 | 5175 ft | 141 kts | 301° |
| 2026-04-24 16:30 | 48.31727 | 13.92591 | 5175 ft | 144 kts | 301° |
| 2026-04-24 16:30 | 48.32269 | 13.91320 | 5174 ft | 145 kts | 301° |
| 2026-04-24 16:30 | 48.32806 | 13.90061 | 5122 ft | 147 kts | 301° |
| 2026-04-24 16:31 | 48.33366 | 13.88746 | 5001 ft | 152 kts | 301° |
| 2026-04-24 16:31 | 48.33932 | 13.87415 | 4980 ft | 150 kts | 301° |
| 2026-04-24 16:31 | 48.34491 | 13.86103 | 4972 ft | 148 kts | 301° |
| 2026-04-24 16:31 | 48.35043 | 13.84801 | 4971 ft | 147 kts | 301° |
| 2026-04-24 16:32 | 48.35591 | 13.83506 | 4968 ft | 146 kts | 301° |
| 2026-04-24 16:32 | 48.36137 | 13.82218 | 4970 ft | 146 kts | 301° |
| 2026-04-24 16:32 | 48.36683 | 13.80929 | 4970 ft | 146 kts | 301° |
| 2026-04-24 16:32 | 48.37220 | 13.79654 | 4970 ft | 146 kts | 302° |
| 2026-04-24 16:33 | 48.37763 | 13.78370 | 4972 ft | 145 kts | 302° |
| 2026-04-24 16:33 | 48.38311 | 13.77085 | 4973 ft | 146 kts | 301° |
| 2026-04-24 16:33 | 48.38861 | 13.75791 | 4975 ft | 148 kts | 301° |
| 2026-04-24 16:33 | 48.39410 | 13.74493 | 4973 ft | 147 kts | 301° |
| 2026-04-24 16:34 | 48.39954 | 13.73198 | 4968 ft | 146 kts | 301° |
| 2026-04-24 16:34 | 48.40499 | 13.71908 | 4975 ft | 146 kts | 301° |
| 2026-04-24 16:34 | 48.41039 | 13.70629 | 4972 ft | 144 kts | 301° |
| 2026-04-24 16:34 | 48.41564 | 13.69382 | 4972 ft | 142 kts | 301° |
| 2026-04-24 16:35 | 48.42095 | 13.68121 | 4971 ft | 143 kts | 301° |
| 2026-04-24 16:35 | 48.42629 | 13.66854 | 4971 ft | 143 kts | 301° |
| 2026-04-24 16:35 | 48.43167 | 13.65582 | 4975 ft | 145 kts | 301° |
| 2026-04-24 16:35 | 48.43712 | 13.64299 | 4973 ft | 146 kts | 300° |
| 2026-04-24 16:36 | 48.44257 | 13.63009 | 4974 ft | 146 kts | 300° |
| 2026-04-24 16:36 | 48.44803 | 13.61711 | 4974 ft | 147 kts | 300° |
| 2026-04-24 16:36 | 48.45349 | 13.60408 | 4971 ft | 147 kts | 301° |
| 2026-04-24 16:36 | 48.45893 | 13.59108 | 4971 ft | 146 kts | 301° |
| 2026-04-24 16:37 | 48.46437 | 13.57815 | 4972 ft | 146 kts | 301° |
| 2026-04-24 16:37 | 48.46974 | 13.56537 | 4974 ft | 147 kts | 301° |
| 2026-04-24 16:37 | 48.47519 | 13.55226 | 4976 ft | 149 kts | 301° |
| 2026-04-24 16:37 | 48.48072 | 13.53909 | 4972 ft | 148 kts | 301° |
| 2026-04-24 16:38 | 48.48622 | 13.52603 | 4974 ft | 147 kts | 301° |
| 2026-04-24 16:38 | 48.49167 | 13.51308 | 4975 ft | 146 kts | 300° |
| 2026-04-24 16:38 | 48.49714 | 13.50014 | 4969 ft | 147 kts | 300° |
| 2026-04-24 16:38 | 48.50258 | 13.48716 | 4970 ft | 146 kts | 300° |
| 2026-04-24 16:39 | 48.50800 | 13.47418 | 4972 ft | 147 kts | 300° |
| 2026-04-24 16:39 | 48.51350 | 13.46100 | 4972 ft | 150 kts | 301° |
| 2026-04-24 16:39 | 48.51899 | 13.44779 | 4973 ft | 150 kts | 301° |
| 2026-04-24 16:39 | 48.52447 | 13.43457 | 4974 ft | 148 kts | 301° |
| 2026-04-24 16:40 | 48.52992 | 13.42157 | 4977 ft | 145 kts | 301° |
| 2026-04-24 16:40 | 48.53531 | 13.40875 | 4977 ft | 144 kts | 301° |
| 2026-04-24 16:40 | 48.54063 | 13.39601 | 4980 ft | 144 kts | 301° |
| 2026-04-24 16:40 | 48.54598 | 13.38313 | 4980 ft | 144 kts | 301° |
| 2026-04-24 16:41 | 48.55129 | 13.37037 | 4979 ft | 143 kts | 301° |
| 2026-04-24 16:41 | 48.55659 | 13.35770 | 4980 ft | 143 kts | 301° |
| 2026-04-24 16:41 | 48.56193 | 13.34492 | 4980 ft | 145 kts | 300° |
| 2026-04-24 16:41 | 48.56725 | 13.33210 | 4982 ft | 147 kts | 301° |
| 2026-04-24 16:42 | 48.57269 | 13.31896 | 4982 ft | 148 kts | 301° |
| 2026-04-24 16:42 | 48.57812 | 13.30584 | 4980 ft | 147 kts | 301° |
| 2026-04-24 16:42 | 48.58358 | 13.29273 | 4980 ft | 148 kts | 301° |
| 2026-04-24 16:42 | 48.58911 | 13.27951 | 4981 ft | 149 kts | 301° |
| 2026-04-24 16:43 | 48.59462 | 13.26626 | 4983 ft | 149 kts | 302° |
| 2026-04-24 16:43 | 48.60010 | 13.25303 | 4984 ft | 149 kts | 302° |
| 2026-04-24 16:43 | 48.60558 | 13.23982 | 4982 ft | 148 kts | 301° |
| 2026-04-24 16:43 | 48.61104 | 13.22666 | 4984 ft | 147 kts | 301° |
| 2026-04-24 16:44 | 48.61640 | 13.21377 | 4979 ft | 147 kts | 301° |
| 2026-04-24 16:44 | 48.62185 | 13.20071 | 5017 ft | 145 kts | 302° |
| 2026-04-24 16:44 | 48.62897 | 13.18963 | 4991 ft | 149 kts | 316° |
| 2026-04-24 16:44 | 48.63660 | 13.17898 | 4988 ft | 149 kts | 315° |
| 2026-04-24 16:45 | 48.64410 | 13.16820 | 4992 ft | 149 kts | 314° |
| 2026-04-24 16:45 | 48.65156 | 13.15739 | 4993 ft | 149 kts | 314° |
| 2026-04-24 16:45 | 48.65899 | 13.14659 | 4991 ft | 148 kts | 314° |
| 2026-04-24 16:45 | 48.66639 | 13.13584 | 4995 ft | 147 kts | 314° |
| 2026-04-24 16:46 | 48.67369 | 13.12528 | 4993 ft | 147 kts | 314° |
| 2026-04-24 16:46 | 48.68113 | 13.11454 | 4994 ft | 148 kts | 314° |
| 2026-04-24 16:46 | 48.68858 | 13.10379 | 4992 ft | 147 kts | 314° |
| 2026-04-24 16:46 | 48.69579 | 13.09334 | 4773 ft | 142 kts | 314° |
| 2026-04-24 16:47 | 48.70298 | 13.08277 | 4381 ft | 145 kts | 314° |
| 2026-04-24 16:47 | 48.71015 | 13.07212 | 4028 ft | 144 kts | 314° |
| 2026-04-24 16:47 | 48.71733 | 13.06142 | 3745 ft | 145 kts | 314° |
| 2026-04-24 16:47 | 48.72443 | 13.05083 | 3555 ft | 143 kts | 314° |
| 2026-04-24 16:48 | 48.73118 | 13.03984 | 3330 ft | 142 kts | 309° |
| 2026-04-24 16:48 | 48.73742 | 13.02843 | 3091 ft | 143 kts | 308° |
| 2026-04-24 16:48 | 48.74350 | 13.01653 | 2842 ft | 142 kts | 306° |
| 2026-04-24 16:48 | 48.74921 | 13.00458 | 2690 ft | 133 kts | 305° |
| 2026-04-24 16:49 | 48.75407 | 12.99387 | 2685 ft | 116 kts | 304° |
| 2026-04-24 16:49 | 48.75724 | 12.98318 | 2680 ft | 112 kts | 275° |
| 2026-04-24 16:49 | 48.75549 | 12.97175 | 2678 ft | 108 kts | 269° |
| 2026-04-24 16:49 | 48.75792 | 12.96187 | 2690 ft | 103 kts | 315° |
| 2026-04-24 16:50 | 48.76153 | 12.95713 | 2689 ft | 104 kts | 318° |
| 2026-04-24 16:50 | 48.76864 | 12.94722 | 2687 ft | 104 kts | 315° |
| 2026-04-24 16:50 | 48.77377 | 12.93967 | 2689 ft | 104 kts | 315° |
| 2026-04-24 16:50 | 48.77809 | 12.93109 | 2612 ft | 103 kts | 303° |
| 2026-04-24 16:51 | 48.78175 | 12.92175 | 2502 ft | 105 kts | 300° |
| 2026-04-24 16:51 | 48.78541 | 12.91214 | 2353 ft | 104 kts | 300° |
| 2026-04-24 16:51 | 48.78914 | 12.90244 | 2178 ft | 106 kts | 301° |
| 2026-04-24 16:51 | 48.79324 | 12.89364 | 2182 ft | 98 kts | 306° |
| 2026-04-24 16:52 | 48.79733 | 12.88566 | 2156 ft | 94 kts | 307° |
| 2026-04-24 16:52 | 48.80124 | 12.87800 | 2104 ft | 92 kts | 307° |
| 2026-04-24 16:52 | 48.80512 | 12.87098 | 2084 ft | 79 kts | 307° |
| 2026-04-24 16:52 | 48.80849 | 12.86510 | 2062 ft | 71 kts | 302° |
| 2026-04-24 16:53 | 48.81089 | 12.85735 | 2092 ft | 95 kts | 294° |
| 2026-04-24 16:53 | 48.81384 | 12.84730 | 2103 ft | 113 kts | 295° |
| 2026-04-24 16:53 | 48.81728 | 12.83571 | 2098 ft | 125 kts | 295° |
| 2026-04-24 16:53 | 48.82089 | 12.82349 | 2100 ft | 130 kts | 295° |
| 2026-04-24 16:54 | 48.82476 | 12.81081 | 2102 ft | 134 kts | 295° |
| 2026-04-24 16:54 | 48.82874 | 12.79787 | 2102 ft | 137 kts | 295° |
| 2026-04-24 16:54 | 48.83274 | 12.78490 | 2103 ft | 138 kts | 295° |
| 2026-04-24 16:54 | 48.83673 | 12.77161 | 2099 ft | 139 kts | 295° |
| 2026-04-24 16:55 | 48.84073 | 12.75809 | 2096 ft | 141 kts | 295° |
| 2026-04-24 16:55 | 48.84469 | 12.74445 | 2099 ft | 141 kts | 295° |
| 2026-04-24 16:55 | 48.84863 | 12.73094 | 2093 ft | 139 kts | 296° |
| 2026-04-24 16:55 | 48.85263 | 12.71783 | 2090 ft | 133 kts | 298° |
| 2026-04-24 16:56 | 48.85703 | 12.70566 | 2089 ft | 130 kts | 300° |
| 2026-04-24 16:56 | 48.86165 | 12.69407 | 2092 ft | 128 kts | 302° |
| 2026-04-24 16:56 | 48.86647 | 12.68237 | 2093 ft | 133 kts | 302° |
| 2026-04-24 16:56 | 48.87150 | 12.67044 | 2091 ft | 133 kts | 304° |
| 2026-04-24 16:57 | 48.87590 | 12.66035 | 2043 ft | 96 kts | 308° |
| 2026-04-24 16:57 | 48.87955 | 12.65295 | 1961 ft | 84 kts | 302° |
| 2026-04-24 16:57 | 48.88159 | 12.64512 | 1895 ft | 82 kts | 289° |
| 2026-04-24 16:57 | 48.88310 | 12.63700 | 1929 ft | 79 kts | 291° |
| 2026-04-24 16:58 | 48.88492 | 12.62888 | 2014 ft | 87 kts | 290° |
| 2026-04-24 16:58 | 48.88690 | 12.62010 | 2015 ft | 86 kts | 291° |
| 2026-04-24 16:58 | 48.88903 | 12.61198 | 2103 ft | 82 kts | 295° |
| 2026-04-24 16:58 | 48.89118 | 12.60413 | 2152 ft | 84 kts | 294° |
| 2026-04-24 16:59 | 48.89342 | 12.59592 | 2132 ft | 86 kts | 292° |
| 2026-04-24 16:59 | 48.89503 | 12.58714 | 2050 ft | 85 kts | 283° |
| 2026-04-24 16:59 | 48.89644 | 12.57004 | 1894 ft | 84 kts | 281° |
| 2026-04-24 17:00 | 48.89723 | 12.56103 | 1783 ft | 85 kts | 280° |
| 2026-04-24 17:00 | 48.89855 | 12.54464 | 1408 ft | 65 kts | 283° |
| 2026-04-24 17:00 | 48.89921 | 12.53704 | 1265 ft | 76 kts | 281° |
| 2026-04-24 17:01 | 48.90038 | 12.52289 | 1045 ft | 53 kts | 277° |
| 2026-04-24 17:01 | 48.90096 | 12.51582 | 1158 ft | 72 kts | 276° |
| 2026-04-24 17:02 | 48.90209 | 12.49970 | 1469 ft | 82 kts | 276° |
| 2026-04-24 17:02 | 48.90527 | 12.49389 | 1530 ft | 84 kts | 359° |
| 2026-04-24 17:02 | 48.91068 | 12.49682 | 1681 ft | 81 kts | 14° |
| 2026-04-24 17:02 | 48.91466 | 12.50292 | 1781 ft | 100 kts | 89° |
| 2026-04-24 17:03 | 48.91342 | 12.52600 | 1835 ft | 114 kts | 94° |
| 2026-04-24 17:03 | 48.91229 | 12.53645 | 1758 ft | 97 kts | 98° |
| 2026-04-24 17:03 | 48.90781 | 12.54341 | 1707 ft | 96 kts | 173° |
| 2026-04-24 17:04 | 48.90162 | 12.54286 | 1552 ft | 79 kts | 214° |
| 2026-04-24 17:04 | 48.89984 | 12.52928 | 1110 ft | 61 kts | 279° |
| 2026-04-24 17:04 | 48.90037 | 12.52338 | 1049 ft | 55 kts | 277° |
| 2026-04-24 17:05 | 48.90092 | 12.51658 | 1151 ft | 77 kts | 277° |
| 2026-04-24 17:05 | 48.90170 | 12.50771 | 1327 ft | 87 kts | 278° |
| 2026-04-24 17:05 | 48.90801 | 12.49548 | 1610 ft | 96 kts | 359° |
| 2026-04-24 17:06 | 48.91465 | 12.49735 | 1770 ft | 99 kts | 24° |
| 2026-04-24 17:06 | 48.91594 | 12.52067 | 1823 ft | 125 kts | 92° |
| 2026-04-24 17:06 | 48.91467 | 12.53339 | 1691 ft | 112 kts | 97° |
| 2026-04-24 17:07 | 48.91230 | 12.53937 | 1673 ft | 93 kts | 155° |
| 2026-04-24 17:07 | 48.90440 | 12.54060 | 1488 ft | 86 kts | 192° |
| 2026-04-24 17:07 | 48.89985 | 12.52962 | 1114 ft | 62 kts | 281° |
| 2026-04-24 17:08 | 48.90092 | 12.51699 | 1148 ft | 65 kts | 277° |
| 2026-04-24 17:08 | 48.90155 | 12.50939 | 1251 ft | 81 kts | 278° |
| 2026-04-24 17:08 | 48.90217 | 12.50042 | 1477 ft | 85 kts | 277° |
| 2026-04-24 17:09 | 48.90320 | 12.48242 | 1928 ft | 87 kts | 278° |
| 2026-04-24 17:09 | 48.90385 | 12.46411 | 2468 ft | 89 kts | 273° |
| 2026-04-24 17:10 | 48.90336 | 12.45481 | 2759 ft | 89 kts | 269° |
| 2026-04-24 17:10 | 48.90061 | 12.42793 | 3686 ft | 85 kts | 266° |
| 2026-04-24 17:11 | 48.89431 | 12.39685 | 4007 ft | 127 kts | 258° |
| 2026-04-24 17:12 | 48.87964 | 12.32396 | 4010 ft | 151 kts | 257° |